Terminal Aerodrome Forecast
Issued by NWS

Home | Current Version | Previous Version | Text Only | Print | Product List | Glossary On
Versions: 1 2 3 4 5 6 7 8 9 10 11 12 13 14 15 16 17
000
FTUS46 KSEW 261300 AAA
TAFHQM
TAF AMD
KHQM 261312Z 2613/2712 00000KT 5SM BR SKC
      TEMPO 2613/2616 1SM BR SCT002
     FM261600 VRB03KT P6SM SKC
     FM261800 25006KT P6SM SCT030
     FM262100 27010KT P6SM SKC
     FM270600 29004KT P6SM SKC=

USA.gov is the U.S. government's official web portal to all federal, state and local government web resources and services.